sensor_id;sensor_type;location;lat;lon;timestamp;P1;durP1;ratioP1;P2;durP2;ratioP2
14611;SDS011;7392;52.078;11.650;2023-06-26T00:00:02;3.13;;;2.93;;
14611;SDS011;7392;52.078;11.650;2023-06-26T00:02:31;3.10;;;2.90;;
14611;SDS011;7392;52.078;11.650;2023-06-26T00:04:59;2.70;;;2.50;;
14611;SDS011;7392;52.078;11.650;2023-06-26T00:07:29;2.80;;;2.60;;
14611;SDS011;7392;52.078;11.650;2023-06-26T00:09:58;2.60;;;2.40;;
14611;SDS011;7392;52.078;11.650;2023-06-26T00:12:26;2.63;;;2.40;;
14611;SDS011;7392;52.078;11.650;2023-06-26T00:14:54;2.73;;;2.53;;
14611;SDS011;7392;52.078;11.650;2023-06-26T00:17:22;2.97;;;2.78;;
14611;SDS011;7392;52.078;11.650;2023-06-26T00:19:50;2.97;;;2.75;;
14611;SDS011;7392;52.078;11.650;2023-06-26T00:22:18;2.70;;;2.50;;
14611;SDS011;7392;52.078;11.650;2023-06-26T00:24:46;3.00;;;2.80;;
14611;SDS011;7392;52.078;11.650;2023-06-26T00:27:15;2.88;;;2.67;;
14611;SDS011;7392;52.078;11.650;2023-06-26T00:29:43;2.80;;;2.60;;
14611;SDS011;7392;52.078;11.650;2023-06-26T00:32:11;3.13;;;2.83;;
14611;SDS011;7392;52.078;11.650;2023-06-26T00:34:38;2.80;;;2.60;;
14611;SDS011;7392;52.078;11.650;2023-06-26T00:37:07;2.33;;;2.13;;
14611;SDS011;7392;52.078;11.650;2023-06-26T00:39:35;2.50;;;2.30;;
14611;SDS011;7392;52.078;11.650;2023-06-26T00:42:03;2.43;;;2.23;;
14611;SDS011;7392;52.078;11.650;2023-06-26T00:44:33;2.43;;;2.23;;
14611;SDS011;7392;52.078;11.650;2023-06-26T00:47:01;2.20;;;2.10;;
14611;SDS011;7392;52.078;11.650;2023-06-26T00:49:29;2.00;;;1.90;;
14611;SDS011;7392;52.078;11.650;2023-06-26T00:51:57;2.40;;;2.20;;
14611;SDS011;7392;52.078;11.650;2023-06-26T00:54:25;2.20;;;2.00;;
14611;SDS011;7392;52.078;11.650;2023-06-26T00:56:53;2.43;;;2.23;;
14611;SDS011;7392;52.078;11.650;2023-06-26T00:59:21;2.40;;;2.20;;
14611;SDS011;7392;52.078;11.650;2023-06-26T01:01:50;2.33;;;2.13;;
14611;SDS011;7392;52.078;11.650;2023-06-26T01:04:17;2.43;;;2.23;;
14611;SDS011;7392;52.078;11.650;2023-06-26T01:06:45;2.20;;;2.00;;
14611;SDS011;7392;52.078;11.650;2023-06-26T01:09:16;2.40;;;2.20;;
14611;SDS011;7392;52.078;11.650;2023-06-26T01:11:45;2.33;;;2.13;;
14611;SDS011;7392;52.078;11.650;2023-06-26T01:14:13;2.43;;;2.23;;
14611;SDS011;7392;52.078;11.650;2023-06-26T01:16:43;2.63;;;2.43;;
14611;SDS011;7392;52.078;11.650;2023-06-26T01:19:18;2.70;;;2.50;;
14611;SDS011;7392;52.078;11.650;2023-06-26T01:21:55;2.27;;;2.07;;
14611;SDS011;7392;52.078;11.650;2023-06-26T01:27:04;2.60;;;2.40;;
14611;SDS011;7392;52.078;11.650;2023-06-26T01:29:33;2.50;;;2.30;;
14611;SDS011;7392;52.078;11.650;2023-06-26T01:32:02;2.40;;;2.20;;
14611;SDS011;7392;52.078;11.650;2023-06-26T01:34:30;2.40;;;2.20;;
14611;SDS011;7392;52.078;11.650;2023-06-26T01:36:58;2.60;;;2.40;;
14611;SDS011;7392;52.078;11.650;2023-06-26T01:39:26;2.60;;;2.40;;
14611;SDS011;7392;52.078;11.650;2023-06-26T01:41:53;2.80;;;2.60;;
14611;SDS011;7392;52.078;11.650;2023-06-26T01:44:25;2.40;;;2.20;;
14611;SDS011;7392;52.078;11.650;2023-06-26T01:46:58;2.67;;;2.47;;
14611;SDS011;7392;52.078;11.650;2023-06-26T01:49:33;2.27;;;2.13;;
14611;SDS011;7392;52.078;11.650;2023-06-26T01:52:12;2.23;;;2.07;;
14611;SDS011;7392;52.078;11.650;2023-06-26T01:54:48;2.40;;;2.20;;
14611;SDS011;7392;52.078;11.650;2023-06-26T01:57:21;2.57;;;2.37;;
14611;SDS011;7392;52.078;11.650;2023-06-26T01:59:52;2.67;;;2.47;;
14611;SDS011;7392;52.078;11.650;2023-06-26T02:02:22;2.70;;;2.50;;
14611;SDS011;7392;52.078;11.650;2023-06-26T02:04:51;2.90;;;2.70;;
14611;SDS011;7392;52.078;11.650;2023-06-26T02:07:19;2.90;;;2.67;;
14611;SDS011;7392;52.078;11.650;2023-06-26T02:09:46;3.27;;;2.97;;
14611;SDS011;7392;52.078;11.650;2023-06-26T02:12:14;3.00;;;2.80;;
14611;SDS011;7392;52.078;11.650;2023-06-26T02:14:42;3.97;;;3.63;;
14611;SDS011;7392;52.078;11.650;2023-06-26T02:17:11;3.43;;;3.13;;
14611;SDS011;7392;52.078;11.650;2023-06-26T02:19:38;3.80;;;3.50;;
14611;SDS011;7392;52.078;11.650;2023-06-26T02:22:11;3.60;;;3.30;;
14611;SDS011;7392;52.078;11.650;2023-06-26T02:24:39;4.40;;;3.30;;
14611;SDS011;7392;52.078;11.650;2023-06-26T02:27:07;3.40;;;3.10;;
14611;SDS011;7392;52.078;11.650;2023-06-26T02:29:35;4.23;;;3.83;;
14611;SDS011;7392;52.078;11.650;2023-06-26T02:32:05;4.67;;;4.17;;
14611;SDS011;7392;52.078;11.650;2023-06-26T02:34:35;4.20;;;3.90;;
14611;SDS011;7392;52.078;11.650;2023-06-26T02:37:03;4.43;;;4.03;;
14611;SDS011;7392;52.078;11.650;2023-06-26T02:39:34;4.27;;;3.87;;
14611;SDS011;7392;52.078;11.650;2023-06-26T02:42:02;4.60;;;4.20;;
14611;SDS011;7392;52.078;11.650;2023-06-26T02:44:30;4.93;;;4.47;;
14611;SDS011;7392;52.078;11.650;2023-06-26T02:46:57;4.00;;;3.70;;
14611;SDS011;7392;52.078;11.650;2023-06-26T02:49:25;4.33;;;4.00;;
14611;SDS011;7392;52.078;11.650;2023-06-26T02:51:54;3.90;;;3.60;;
14611;SDS011;7392;52.078;11.650;2023-06-26T02:54:26;4.50;;;4.10;;
14611;SDS011;7392;52.078;11.650;2023-06-26T02:56:59;4.40;;;4.00;;
14611;SDS011;7392;52.078;11.650;2023-06-26T02:59:29;3.20;;;3.00;;
14611;SDS011;7392;52.078;11.650;2023-06-26T03:01:57;3.80;;;3.50;;
14611;SDS011;7392;52.078;11.650;2023-06-26T03:04:33;3.53;;;3.23;;
14611;SDS011;7392;52.078;11.650;2023-06-26T03:07:05;4.13;;;3.83;;
14611;SDS011;7392;52.078;11.650;2023-06-26T03:09:33;4.17;;;3.80;;
14611;SDS011;7392;52.078;11.650;2023-06-26T03:12:01;4.30;;;3.90;;
14611;SDS011;7392;52.078;11.650;2023-06-26T03:14:31;4.37;;;3.97;;
14611;SDS011;7392;52.078;11.650;2023-06-26T03:16:59;4.60;;;4.30;;
14611;SDS011;7392;52.078;11.650;2023-06-26T03:19:31;4.70;;;4.30;;
14611;SDS011;7392;52.078;11.650;2023-06-26T03:22:23;4.20;;;3.80;;
14611;SDS011;7392;52.078;11.650;2023-06-26T03:24:51;4.63;;;4.23;;
14611;SDS011;7392;52.078;11.650;2023-06-26T03:27:19;4.20;;;3.90;;
14611;SDS011;7392;52.078;11.650;2023-06-26T03:29:48;4.17;;;3.87;;
14611;SDS011;7392;52.078;11.650;2023-06-26T03:32:17;4.27;;;3.97;;
14611;SDS011;7392;52.078;11.650;2023-06-26T03:34:45;3.73;;;3.43;;
14611;SDS011;7392;52.078;11.650;2023-06-26T03:37:13;4.37;;;3.97;;
14611;SDS011;7392;52.078;11.650;2023-06-26T03:39:42;3.97;;;3.57;;
14611;SDS011;7392;52.078;11.650;2023-06-26T03:42:10;5.17;;;3.77;;
14611;SDS011;7392;52.078;11.650;2023-06-26T03:44:38;3.60;;;3.30;;
14611;SDS011;7392;52.078;11.650;2023-06-26T03:47:05;3.60;;;3.30;;
14611;SDS011;7392;52.078;11.650;2023-06-26T03:49:34;4.60;;;4.10;;
14611;SDS011;7392;52.078;11.650;2023-06-26T03:52:03;5.47;;;3.70;;
14611;SDS011;7392;52.078;11.650;2023-06-26T03:54:31;4.53;;;4.13;;
14611;SDS011;7392;52.078;11.650;2023-06-26T03:57:01;6.33;;;5.50;;
14611;SDS011;7392;52.078;11.650;2023-06-26T03:59:29;6.23;;;5.63;;
14611;SDS011;7392;52.078;11.650;2023-06-26T04:01:57;6.53;;;5.77;;
14611;SDS011;7392;52.078;11.650;2023-06-26T04:04:25;5.27;;;4.77;;
14611;SDS011;7392;52.078;11.650;2023-06-26T04:06:53;7.70;;;5.97;;
14611;SDS011;7392;52.078;11.650;2023-06-26T04:09:21;5.63;;;5.13;;
14611;SDS011;7392;52.078;11.650;2023-06-26T04:11:49;5.57;;;5.07;;
14611;SDS011;7392;52.078;11.650;2023-06-26T04:14:18;5.70;;;5.10;;
14611;SDS011;7392;52.078;11.650;2023-06-26T04:16:45;5.03;;;4.63;;
14611;SDS011;7392;52.078;11.650;2023-06-26T04:19:13;6.27;;;5.67;;
14611;SDS011;7392;52.078;11.650;2023-06-26T04:21:41;6.63;;;6.03;;
14611;SDS011;7392;52.078;11.650;2023-06-26T04:24:09;5.80;;;5.30;;
14611;SDS011;7392;52.078;11.650;2023-06-26T04:26:40;5.13;;;4.73;;
14611;SDS011;7392;52.078;11.650;2023-06-26T04:29:09;6.00;;;5.40;;
14611;SDS011;7392;52.078;11.650;2023-06-26T04:31:38;6.03;;;5.53;;
14611;SDS011;7392;52.078;11.650;2023-06-26T04:34:06;6.30;;;5.70;;
14611;SDS011;7392;52.078;11.650;2023-06-26T04:36:34;5.90;;;5.40;;
14611;SDS011;7392;52.078;11.650;2023-06-26T04:39:05;6.33;;;5.80;;
14611;SDS011;7392;52.078;11.650;2023-06-26T04:41:33;6.00;;;5.40;;
14611;SDS011;7392;52.078;11.650;2023-06-26T04:44:01;5.63;;;5.17;;
14611;SDS011;7392;52.078;11.650;2023-06-26T04:46:28;5.60;;;5.10;;
14611;SDS011;7392;52.078;11.650;2023-06-26T04:48:58;5.90;;;5.30;;
14611;SDS011;7392;52.078;11.650;2023-06-26T04:51:25;5.30;;;4.80;;
14611;SDS011;7392;52.078;11.650;2023-06-26T04:53:55;5.63;;;5.13;;
14611;SDS011;7392;52.078;11.650;2023-06-26T04:56:22;4.97;;;4.57;;
14611;SDS011;7392;52.078;11.650;2023-06-26T04:58:50;4.37;;;4.03;;
14611;SDS011;7392;52.078;11.650;2023-06-26T05:01:18;4.37;;;3.97;;
14611;SDS011;7392;52.078;11.650;2023-06-26T05:03:45;4.20;;;3.90;;
14611;SDS011;7392;52.078;11.650;2023-06-26T05:06:15;4.40;;;4.00;;
14611;SDS011;7392;52.078;11.650;2023-06-26T05:08:43;5.83;;;5.17;;
14611;SDS011;7392;52.078;11.650;2023-06-26T05:11:11;4.93;;;4.53;;
14611;SDS011;7392;52.078;11.650;2023-06-26T05:13:38;5.40;;;4.80;;
14611;SDS011;7392;52.078;11.650;2023-06-26T05:16:06;5.20;;;4.23;;
14611;SDS011;7392;52.078;11.650;2023-06-26T05:18:35;5.40;;;4.90;;
14611;SDS011;7392;52.078;11.650;2023-06-26T05:21:03;5.80;;;5.30;;
14611;SDS011;7392;52.078;11.650;2023-06-26T05:23:33;7.33;;;6.60;;
14611;SDS011;7392;52.078;11.650;2023-06-26T05:26:02;6.17;;;5.57;;
14611;SDS011;7392;52.078;11.650;2023-06-26T05:28:31;6.80;;;6.10;;
14611;SDS011;7392;52.078;11.650;2023-06-26T05:30:59;5.07;;;4.57;;
14611;SDS011;7392;52.078;11.650;2023-06-26T05:33:27;4.53;;;4.13;;
14611;SDS011;7392;52.078;11.650;2023-06-26T05:35:56;4.00;;;3.70;;
14611;SDS011;7392;52.078;11.650;2023-06-26T05:38:25;4.40;;;4.00;;
14611;SDS011;7392;52.078;11.650;2023-06-26T05:43:53;5.63;;;4.93;;
14611;SDS011;7392;52.078;11.650;2023-06-26T05:46:21;4.60;;;4.20;;
14611;SDS011;7392;52.078;11.650;2023-06-26T05:48:48;4.60;;;4.20;;
14611;SDS011;7392;52.078;11.650;2023-06-26T05:51:16;4.80;;;4.40;;
14611;SDS011;7392;52.078;11.650;2023-06-26T05:53:45;4.50;;;4.10;;
14611;SDS011;7392;52.078;11.650;2023-06-26T05:56:13;4.00;;;3.70;;
14611;SDS011;7392;52.078;11.650;2023-06-26T05:58:42;4.13;;;3.83;;
14611;SDS011;7392;52.078;11.650;2023-06-26T06:01:11;5.70;;;5.00;;
14611;SDS011;7392;52.078;11.650;2023-06-26T06:03:39;5.77;;;5.23;;
14611;SDS011;7392;52.078;11.650;2023-06-26T06:06:07;4.57;;;4.17;;
14611;SDS011;7392;52.078;11.650;2023-06-26T06:08:35;5.60;;;5.10;;
14611;SDS011;7392;52.078;11.650;2023-06-26T06:11:03;4.73;;;4.33;;
14611;SDS011;7392;52.078;11.650;2023-06-26T06:13:31;4.30;;;4.00;;
14611;SDS011;7392;52.078;11.650;2023-06-26T06:16:00;4.30;;;3.93;;
14611;SDS011;7392;52.078;11.650;2023-06-26T06:18:28;4.70;;;4.30;;
14611;SDS011;7392;52.078;11.650;2023-06-26T06:20:55;5.03;;;4.63;;
14611;SDS011;7392;52.078;11.650;2023-06-26T06:23:23;6.50;;;5.27;;
14611;SDS011;7392;52.078;11.650;2023-06-26T06:25:51;5.23;;;4.73;;
14611;SDS011;7392;52.078;11.650;2023-06-26T06:28:19;5.33;;;4.83;;
14611;SDS011;7392;52.078;11.650;2023-06-26T06:30:46;5.67;;;5.13;;
14611;SDS011;7392;52.078;11.650;2023-06-26T06:33:16;4.67;;;4.27;;
14611;SDS011;7392;52.078;11.650;2023-06-26T06:35:43;4.80;;;4.37;;
14611;SDS011;7392;52.078;11.650;2023-06-26T06:38:11;4.97;;;4.57;;
14611;SDS011;7392;52.078;11.650;2023-06-26T06:40:39;4.70;;;4.30;;
14611;SDS011;7392;52.078;11.650;2023-06-26T06:43:07;6.60;;;5.37;;
14611;SDS011;7392;52.078;11.650;2023-06-26T06:45:35;5.20;;;4.70;;
14611;SDS011;7392;52.078;11.650;2023-06-26T06:48:04;6.40;;;4.80;;
14611;SDS011;7392;52.078;11.650;2023-06-26T06:50:33;7.43;;;5.23;;
14611;SDS011;7392;52.078;11.650;2023-06-26T06:53:01;6.90;;;4.80;;
14611;SDS011;7392;52.078;11.650;2023-06-26T06:55:29;7.47;;;5.37;;
14611;SDS011;7392;52.078;11.650;2023-06-26T06:57:56;6.50;;;4.50;;
14611;SDS011;7392;52.078;11.650;2023-06-26T07:00:24;5.73;;;4.80;;
14611;SDS011;7392;52.078;11.650;2023-06-26T07:02:52;5.40;;;4.90;;
14611;SDS011;7392;52.078;11.650;2023-06-26T07:05:21;5.67;;;4.90;;
14611;SDS011;7392;52.078;11.650;2023-06-26T07:07:50;8.23;;;5.33;;
14611;SDS011;7392;52.078;11.650;2023-06-26T07:10:18;6.80;;;5.03;;
14611;SDS011;7392;52.078;11.650;2023-06-26T07:12:45;6.40;;;4.80;;
14611;SDS011;7392;52.078;11.650;2023-06-26T07:15:13;5.80;;;5.13;;
14611;SDS011;7392;52.078;11.650;2023-06-26T07:17:41;7.03;;;5.30;;
14611;SDS011;7392;52.078;11.650;2023-06-26T07:20:09;7.23;;;4.87;;
14611;SDS011;7392;52.078;11.650;2023-06-26T07:22:42;6.07;;;4.80;;
14611;SDS011;7392;52.078;11.650;2023-06-26T07:25:12;5.50;;;4.80;;
14611;SDS011;7392;52.078;11.650;2023-06-26T07:27:40;4.75;;;4.10;;
14611;SDS011;7392;52.078;11.650;2023-06-26T07:30:09;6.93;;;4.80;;
14611;SDS011;7392;52.078;11.650;2023-06-26T07:32:38;6.28;;;4.60;;
14611;SDS011;7392;52.078;11.650;2023-06-26T07:35:07;5.15;;;4.65;;
14611;SDS011;7392;52.078;11.650;2023-06-26T07:37:34;8.30;;;5.93;;
14611;SDS011;7392;52.078;11.650;2023-06-26T07:40:02;6.20;;;5.70;;
14611;SDS011;7392;52.078;11.650;2023-06-26T07:42:32;6.07;;;5.50;;
14611;SDS011;7392;52.078;11.650;2023-06-26T07:44:59;6.50;;;5.90;;
14611;SDS011;7392;52.078;11.650;2023-06-26T07:47:28;7.90;;;6.03;;
14611;SDS011;7392;52.078;11.650;2023-06-26T07:49:55;6.43;;;5.80;;
14611;SDS011;7392;52.078;11.650;2023-06-26T07:52:23;9.02;;;7.00;;
14611;SDS011;7392;52.078;11.650;2023-06-26T07:54:51;7.43;;;6.63;;
14611;SDS011;7392;52.078;11.650;2023-06-26T07:57:18;8.60;;;7.30;;
14611;SDS011;7392;52.078;11.650;2023-06-26T07:59:47;8.35;;;6.85;;
14611;SDS011;7392;52.078;11.650;2023-06-26T08:02:15;8.13;;;6.78;;
14611;SDS011;7392;52.078;11.650;2023-06-26T08:04:43;7.30;;;6.25;;
14611;SDS011;7392;52.078;11.650;2023-06-26T08:07:11;6.10;;;5.50;;
14611;SDS011;7392;52.078;11.650;2023-06-26T08:09:40;6.78;;;5.55;;
14611;SDS011;7392;52.078;11.650;2023-06-26T08:12:09;8.90;;;5.38;;
14611;SDS011;7392;52.078;11.650;2023-06-26T08:14:38;6.90;;;4.93;;
14611;SDS011;7392;52.078;11.650;2023-06-26T08:17:07;5.40;;;4.90;;
14611;SDS011;7392;52.078;11.650;2023-06-26T08:19:35;5.07;;;4.45;;
14611;SDS011;7392;52.078;11.650;2023-06-26T08:22:03;6.40;;;4.80;;
14611;SDS011;7392;52.078;11.650;2023-06-26T08:24:31;4.88;;;4.38;;
14611;SDS011;7392;52.078;11.650;2023-06-26T08:26:58;4.80;;;4.32;;
14611;SDS011;7392;52.078;11.650;2023-06-26T08:29:26;7.22;;;4.63;;
14611;SDS011;7392;52.078;11.650;2023-06-26T08:31:54;5.93;;;4.65;;
14611;SDS011;7392;52.078;11.650;2023-06-26T08:34:24;5.20;;;4.70;;
14611;SDS011;7392;52.078;11.650;2023-06-26T08:36:52;5.50;;;5.03;;
14611;SDS011;7392;52.078;11.650;2023-06-26T08:39:19;4.82;;;4.32;;
14611;SDS011;7392;52.078;11.650;2023-06-26T08:41:47;5.45;;;4.95;;
14611;SDS011;7392;52.078;11.650;2023-06-26T08:44:15;5.22;;;4.75;;
14611;SDS011;7392;52.078;11.650;2023-06-26T08:46:43;5.32;;;4.82;;
14611;SDS011;7392;52.078;11.650;2023-06-26T08:49:13;4.90;;;4.50;;
14611;SDS011;7392;52.078;11.650;2023-06-26T08:51:44;5.00;;;4.55;;
14611;SDS011;7392;52.078;11.650;2023-06-26T08:54:20;5.85;;;4.78;;
14611;SDS011;7392;52.078;11.650;2023-06-26T08:56:55;4.78;;;4.28;;
14611;SDS011;7392;52.078;11.650;2023-06-26T08:59:24;4.70;;;4.30;;
14611;SDS011;7392;52.078;11.650;2023-06-26T09:01:52;4.90;;;4.50;;
14611;SDS011;7392;52.078;11.650;2023-06-26T09:04:21;6.07;;;5.10;;
14611;SDS011;7392;52.078;11.650;2023-06-26T09:06:50;4.72;;;4.25;;
14611;SDS011;7392;52.078;11.650;2023-06-26T09:09:17;6.07;;;4.88;;
14611;SDS011;7392;52.078;11.650;2023-06-26T09:11:45;5.45;;;4.88;;
14611;SDS011;7392;52.078;11.650;2023-06-26T09:14:13;4.82;;;4.43;;
14611;SDS011;7392;52.078;11.650;2023-06-26T09:16:41;5.25;;;4.30;;
14611;SDS011;7392;52.078;11.650;2023-06-26T09:19:09;5.00;;;4.60;;
14611;SDS011;7392;52.078;11.650;2023-06-26T09:21:38;5.55;;;5.05;;
14611;SDS011;7392;52.078;11.650;2023-06-26T09:24:08;4.90;;;4.50;;
14611;SDS011;7392;52.078;11.650;2023-06-26T09:26:37;6.32;;;4.30;;
14611;SDS011;7392;52.078;11.650;2023-06-26T09:29:06;4.80;;;4.40;;
14611;SDS011;7392;52.078;11.650;2023-06-26T09:31:33;4.50;;;4.10;;
14611;SDS011;7392;52.078;11.650;2023-06-26T09:34:08;5.07;;;4.25;;
14611;SDS011;7392;52.078;11.650;2023-06-26T09:36:36;4.10;;;3.70;;
14611;SDS011;7392;52.078;11.650;2023-06-26T09:39:06;4.80;;;4.30;;
14611;SDS011;7392;52.078;11.650;2023-06-26T09:41:40;6.65;;;4.68;;
14611;SDS011;7392;52.078;11.650;2023-06-26T09:44:10;4.95;;;4.55;;
14611;SDS011;7392;52.078;11.650;2023-06-26T09:46:38;5.40;;;4.90;;
14611;SDS011;7392;52.078;11.650;2023-06-26T09:49:07;5.03;;;4.63;;
14611;SDS011;7392;52.078;11.650;2023-06-26T09:51:37;5.18;;;4.13;;
14611;SDS011;7392;52.078;11.650;2023-06-26T09:54:07;4.85;;;4.45;;
14611;SDS011;7392;52.078;11.650;2023-06-26T09:56:36;4.25;;;3.95;;
14611;SDS011;7392;52.078;11.650;2023-06-26T09:59:05;5.53;;;5.03;;
14611;SDS011;7392;52.078;11.650;2023-06-26T10:01:33;4.82;;;4.43;;
14611;SDS011;7392;52.078;11.650;2023-06-26T10:04:08;5.20;;;4.70;;
14611;SDS011;7392;52.078;11.650;2023-06-26T10:06:37;5.10;;;4.70;;
14611;SDS011;7392;52.078;11.650;2023-06-26T10:09:09;4.50;;;4.10;;
14611;SDS011;7392;52.078;11.650;2023-06-26T10:14:24;4.78;;;4.38;;
14611;SDS011;7392;52.078;11.650;2023-06-26T10:16:55;6.47;;;4.95;;
14611;SDS011;7392;52.078;11.650;2023-06-26T10:19:25;4.90;;;4.40;;
14611;SDS011;7392;52.078;11.650;2023-06-26T10:21:55;5.05;;;4.63;;
14611;SDS011;7392;52.078;11.650;2023-06-26T10:24:24;4.50;;;4.10;;
14611;SDS011;7392;52.078;11.650;2023-06-26T10:26:57;4.30;;;3.90;;
14611;SDS011;7392;52.078;11.650;2023-06-26T10:29:29;4.95;;;4.38;;
14611;SDS011;7392;52.078;11.650;2023-06-26T10:31:59;6.85;;;4.70;;
14611;SDS011;7392;52.078;11.650;2023-06-26T10:34:30;5.07;;;4.68;;
14611;SDS011;7392;52.078;11.650;2023-06-26T10:36:58;5.38;;;4.88;;
14611;SDS011;7392;52.078;11.650;2023-06-26T10:39:28;6.85;;;4.50;;
14611;SDS011;7392;52.078;11.650;2023-06-26T10:42:14;5.22;;;4.82;;
14611;SDS011;7392;52.078;11.650;2023-06-26T10:44:43;4.85;;;4.45;;
14611;SDS011;7392;52.078;11.650;2023-06-26T10:47:11;5.47;;;4.97;;
14611;SDS011;7392;52.078;11.650;2023-06-26T10:49:53;5.40;;;4.90;;
14611;SDS011;7392;52.078;11.650;2023-06-26T10:52:37;4.93;;;4.53;;
14611;SDS011;7392;52.078;11.650;2023-06-26T10:55:06;5.25;;;4.75;;
14611;SDS011;7392;52.078;11.650;2023-06-26T10:57:35;4.90;;;4.40;;
14611;SDS011;7392;52.078;11.650;2023-06-26T11:00:10;4.45;;;4.10;;
14611;SDS011;7392;52.078;11.650;2023-06-26T11:02:47;6.07;;;4.38;;
14611;SDS011;7392;52.078;11.650;2023-06-26T11:05:23;4.60;;;4.20;;
14611;SDS011;7392;52.078;11.650;2023-06-26T11:08:04;4.60;;;4.20;;
14611;SDS011;7392;52.078;11.650;2023-06-26T11:10:50;4.65;;;4.25;;
14611;SDS011;7392;52.078;11.650;2023-06-26T11:13:20;4.30;;;4.00;;
14611;SDS011;7392;52.078;11.650;2023-06-26T11:15:49;4.30;;;3.90;;
14611;SDS011;7392;52.078;11.650;2023-06-26T11:18:17;4.63;;;4.22;;
14611;SDS011;7392;52.078;11.650;2023-06-26T11:20:46;5.68;;;4.63;;
14611;SDS011;7392;52.078;11.650;2023-06-26T11:23:13;4.63;;;4.25;;
14611;SDS011;7392;52.078;11.650;2023-06-26T11:25:51;4.70;;;3.97;;
14611;SDS011;7392;52.078;11.650;2023-06-26T11:28:20;4.45;;;4.05;;
14611;SDS011;7392;52.078;11.650;2023-06-26T11:30:48;4.70;;;4.30;;
14611;SDS011;7392;52.078;11.650;2023-06-26T11:33:16;4.28;;;3.97;;
14611;SDS011;7392;52.078;11.650;2023-06-26T11:35:44;5.68;;;4.40;;
14611;SDS011;7392;52.078;11.650;2023-06-26T11:38:12;4.07;;;3.70;;
14611;SDS011;7392;52.078;11.650;2023-06-26T11:40:39;4.05;;;3.75;;
14611;SDS011;7392;52.078;11.650;2023-06-26T11:43:09;3.85;;;3.55;;
14611;SDS011;7392;52.078;11.650;2023-06-26T11:45:37;4.38;;;4.05;;
14611;SDS011;7392;52.078;11.650;2023-06-26T11:48:07;4.32;;;4.03;;
14611;SDS011;7392;52.078;11.650;2023-06-26T11:50:36;4.05;;;3.75;;
14611;SDS011;7392;52.078;11.650;2023-06-26T11:53:04;3.50;;;3.20;;
14611;SDS011;7392;52.078;11.650;2023-06-26T11:55:40;3.83;;;3.53;;
14611;SDS011;7392;52.078;11.650;2023-06-26T11:58:10;4.00;;;3.60;;
14611;SDS011;7392;52.078;11.650;2023-06-26T12:00:40;3.47;;;3.25;;
14611;SDS011;7392;52.078;11.650;2023-06-26T12:03:08;3.67;;;3.38;;
14611;SDS011;7392;52.078;11.650;2023-06-26T12:05:36;3.83;;;3.53;;
14611;SDS011;7392;52.078;11.650;2023-06-26T12:08:06;3.80;;;3.50;;
14611;SDS011;7392;52.078;11.650;2023-06-26T12:10:34;3.83;;;3.53;;
14611;SDS011;7392;52.078;11.650;2023-06-26T12:13:03;4.55;;;4.03;;
14611;SDS011;7392;52.078;11.650;2023-06-26T12:15:32;4.40;;;4.00;;
14611;SDS011;7392;52.078;11.650;2023-06-26T12:18:01;4.90;;;4.50;;
14611;SDS011;7392;52.078;11.650;2023-06-26T12:20:39;5.25;;;4.50;;
14611;SDS011;7392;52.078;11.650;2023-06-26T12:23:11;4.93;;;4.53;;
14611;SDS011;7392;52.078;11.650;2023-06-26T12:25:39;4.90;;;4.50;;
14611;SDS011;7392;52.078;11.650;2023-06-26T12:28:14;5.82;;;5.20;;
14611;SDS011;7392;52.078;11.650;2023-06-26T12:30:47;6.13;;;4.93;;
14611;SDS011;7392;52.078;11.650;2023-06-26T12:33:15;6.68;;;5.20;;
14611;SDS011;7392;52.078;11.650;2023-06-26T12:35:42;6.28;;;5.68;;
14611;SDS011;7392;52.078;11.650;2023-06-26T12:38:10;8.60;;;5.60;;
14611;SDS011;7392;52.078;11.650;2023-06-26T12:40:44;5.90;;;5.40;;
14611;SDS011;7392;52.078;11.650;2023-06-26T12:43:22;6.30;;;5.80;;
14611;SDS011;7392;52.078;11.650;2023-06-26T12:45:55;6.65;;;6.15;;
14611;SDS011;7392;52.078;11.650;2023-06-26T12:48:35;7.00;;;6.30;;
14611;SDS011;7392;52.078;11.650;2023-06-26T12:51:07;6.18;;;5.68;;
14611;SDS011;7392;52.078;11.650;2023-06-26T12:53:36;11.82;;;6.03;;
14611;SDS011;7392;52.078;11.650;2023-06-26T12:56:05;9.50;;;6.55;;
14611;SDS011;7392;52.078;11.650;2023-06-26T12:58:33;7.53;;;6.75;;
14611;SDS011;7392;52.078;11.650;2023-06-26T13:01:03;12.40;;;6.93;;
14611;SDS011;7392;52.078;11.650;2023-06-26T13:03:34;7.38;;;6.45;;
14611;SDS011;7392;52.078;11.650;2023-06-26T13:06:01;7.60;;;6.00;;
14611;SDS011;7392;52.078;11.650;2023-06-26T13:08:29;7.45;;;6.38;;
14611;SDS011;7392;52.078;11.650;2023-06-26T13:10:57;8.07;;;6.47;;
14611;SDS011;7392;52.078;11.650;2023-06-26T13:13:25;6.75;;;6.03;;
14611;SDS011;7392;52.078;11.650;2023-06-26T13:15:53;6.50;;;5.88;;
14611;SDS011;7392;52.078;11.650;2023-06-26T13:18:22;7.47;;;6.53;;
14611;SDS011;7392;52.078;11.650;2023-06-26T13:20:50;8.50;;;6.32;;
14611;SDS011;7392;52.078;11.650;2023-06-26T13:23:17;8.38;;;6.63;;
14611;SDS011;7392;52.078;11.650;2023-06-26T13:25:45;9.57;;;6.72;;
14611;SDS011;7392;52.078;11.650;2023-06-26T13:28:13;7.72;;;6.22;;
14611;SDS011;7392;52.078;11.650;2023-06-26T13:30:41;10.68;;;5.65;;
14611;SDS011;7392;52.078;11.650;2023-06-26T13:33:08;10.95;;;5.88;;
14611;SDS011;7392;52.078;11.650;2023-06-26T13:35:38;5.75;;;5.20;;
14611;SDS011;7392;52.078;11.650;2023-06-26T13:38:06;6.80;;;4.93;;
14611;SDS011;7392;52.078;11.650;2023-06-26T13:40:33;6.43;;;4.63;;
14611;SDS011;7392;52.078;11.650;2023-06-26T13:43:01;5.75;;;4.50;;
14611;SDS011;7392;52.078;11.650;2023-06-26T13:45:30;5.38;;;4.50;;
14611;SDS011;7392;52.078;11.650;2023-06-26T13:47:58;5.75;;;4.20;;
14611;SDS011;7392;52.078;11.650;2023-06-26T13:50:26;5.57;;;4.95;;
14611;SDS011;7392;52.078;11.650;2023-06-26T13:53:11;4.40;;;4.00;;
14611;SDS011;7392;52.078;11.650;2023-06-26T13:55:39;5.85;;;4.60;;
14611;SDS011;7392;52.078;11.650;2023-06-26T13:58:08;5.55;;;4.07;;
14611;SDS011;7392;52.078;11.650;2023-06-26T14:00:36;4.82;;;4.30;;
14611;SDS011;7392;52.078;11.650;2023-06-26T14:03:05;5.85;;;4.78;;
14611;SDS011;7392;52.078;11.650;2023-06-26T14:05:34;5.07;;;4.47;;
14611;SDS011;7392;52.078;11.650;2023-06-26T14:08:02;5.90;;;4.80;;
14611;SDS011;7392;52.078;11.650;2023-06-26T14:10:33;5.15;;;4.50;;
14611;SDS011;7392;52.078;11.650;2023-06-26T14:13:01;6.13;;;4.70;;
14611;SDS011;7392;52.078;11.650;2023-06-26T14:15:29;4.75;;;4.28;;
14611;SDS011;7392;52.078;11.650;2023-06-26T14:17:57;8.73;;;4.80;;
14611;SDS011;7392;52.078;11.650;2023-06-26T14:20:25;5.22;;;4.68;;
14611;SDS011;7392;52.078;11.650;2023-06-26T14:22:54;4.68;;;4.15;;
14611;SDS011;7392;52.078;11.650;2023-06-26T14:25:23;4.80;;;4.07;;
14611;SDS011;7392;52.078;11.650;2023-06-26T14:27:56;5.15;;;4.40;;
14611;SDS011;7392;52.078;11.650;2023-06-26T14:30:24;4.57;;;3.75;;
14611;SDS011;7392;52.078;11.650;2023-06-26T14:32:52;4.90;;;4.28;;
14611;SDS011;7392;52.078;11.650;2023-06-26T14:35:20;4.72;;;3.85;;
14611;SDS011;7392;52.078;11.650;2023-06-26T14:37:48;5.82;;;3.92;;
14611;SDS011;7392;52.078;11.650;2023-06-26T14:40:16;5.35;;;4.00;;
14611;SDS011;7392;52.078;11.650;2023-06-26T14:42:44;4.10;;;3.72;;
14611;SDS011;7392;52.078;11.650;2023-06-26T14:45:14;6.22;;;4.55;;
14611;SDS011;7392;52.078;11.650;2023-06-26T14:47:42;6.55;;;4.60;;
14611;SDS011;7392;52.078;11.650;2023-06-26T14:50:10;8.93;;;4.78;;
14611;SDS011;7392;52.078;11.650;2023-06-26T14:52:37;4.50;;;4.10;;
14611;SDS011;7392;52.078;11.650;2023-06-26T14:55:05;5.55;;;4.22;;
14611;SDS011;7392;52.078;11.650;2023-06-26T14:57:35;6.47;;;4.43;;
14611;SDS011;7392;52.078;11.650;2023-06-26T15:00:03;5.60;;;4.30;;
14611;SDS011;7392;52.078;11.650;2023-06-26T15:02:33;5.65;;;4.63;;
14611;SDS011;7392;52.078;11.650;2023-06-26T15:05:01;4.25;;;3.90;;
14611;SDS011;7392;52.078;11.650;2023-06-26T15:07:29;4.47;;;4.03;;